• Join FlightAware (Why Join?)
  • Login
  • US Flag 
10:03PM EDT


 

Airport Tracker/Info


-or-


 

Live Flight TrackerFlight Track Log ✈ TAM3609 ✈ 20-Jun-2013 ✈ SBEG / MAO - SBBR / BSB

Flight Track Log - Related Links

Times and Time Zones

All times are in EDT time to prevent confusion due to time zone crossing. See the TAM3609 flight status page for this flight to view local times or setup timezone preferences in your user account.

Time Position Orientation Groundspeed Altitude Reporting Facility
EDT Latitude Longitude Course Direction KTS MPH feet Rate Location/Type
02:46PM -3.0390 -60.0060 91° East 188 216 1,700  Level FlightAware
02:46PM -3.0390 -59.9980 90° East 198 228 1,900 1,500 Climbing FlightAware
02:47PM -3.0420 -59.9640 95° East 204 235 3,100 1,920 Climbing FlightAware
02:47PM -3.0730 -59.9360 138° Southeast 245 282 4,000 2,160 Climbing FlightAware
02:48PM -3.0990 -59.9170 144° Southeast 251 289 5,200 2,520 Climbing FlightAware
02:48PM -3.1370 -59.8870 142° Southeast 257 296 7,000 2,460 Climbing FlightAware
02:49PM -3.1640 -59.8670 144° Southeast 264 304 8,100 2,460 Climbing FlightAware
02:49PM -3.1900 -59.8470 142° Southeast 265 305 9,300 1,980 Climbing FlightAware
02:50PM -3.2470 -59.8030 142° Southeast 298 343 10,900 1,440 Climbing FlightAware
02:51PM -3.2970 -59.7640 142° Southeast 336 387 11,700 1,020 Climbing FlightAware
02:52PM -3.3490 -59.7250 143° Southeast 363 418 12,400 1,440 Climbing FlightAware
02:52PM -3.4070 -59.6800 142° Southeast 375 432 13,700 1,920 Climbing FlightAware
02:53PM -3.4620 -59.6370 142° Southeast 380 437 15,000 1,860 Climbing FlightAware
02:54PM -3.5230 -59.5890 142° Southeast 387 445 16,300 1,200 Climbing FlightAware
02:55PM -3.5930 -59.5350 142° Southeast 391 450 17,000 840 Climbing FlightAware
02:56PM -3.6800 -59.4680 142° Southeast 399 459 18,000 600 Climbing FlightAware
02:56PM -3.7220 -59.4350 142° Southeast 399 459 18,000  Level FlightAware
02:57PM -3.7840 -59.3860 142° Southeast 399 459 18,000  Level FlightAware
02:58PM -3.8290 -59.3510 142° Southeast 399 459 18,000  Level FlightAware
02:58PM -3.8860 -59.3070 142° Southeast 399 459 18,000 120 Level FlightAware
03:01PM -4.0926 -59.1184 138° Southeast  Level Estimated
03:02PM -4.1859 -59.0333 138° Southeast  Level Estimated
03:03PM -4.2790 -58.9482 138° Southeast  Level Estimated
03:04PM -4.3722 -58.8631 138° Southeast  Level Estimated
03:05PM -4.4654 -58.7779 138° Southeast  Level Estimated
03:06PM -4.5586 -58.6927 138° Southeast  Level Estimated
03:07PM -4.6518 -58.6075 138° Southeast  Level Estimated
03:08PM -4.7449 -58.5223 138° Southeast  Level Estimated
03:09PM -4.8380 -58.4370 138° Southeast  Level Estimated
03:10PM -4.9312 -58.3517 138° Southeast  Level Estimated
03:11PM -5.0243 -58.2664 138° Southeast  Level Estimated
03:12PM -5.1174 -58.1811 138° Southeast  Level Estimated
03:13PM -5.2105 -58.0958 138° Southeast  Level Estimated
03:14PM -5.3035 -58.0104 138° Southeast  Level Estimated
03:15PM -5.3959 -57.9256 138° Southeast  Level Estimated
03:16PM -5.4883 -57.8408 138° Southeast  Level Estimated
03:17PM -5.5807 -57.7560 138° Southeast  Level Estimated
03:18PM -5.6731 -57.6711 138° Southeast  Level Estimated
03:19PM -5.7655 -57.5862 138° Southeast  Level Estimated
03:20PM -5.8578 -57.5013 138° Southeast  Level Estimated
03:21PM -5.9501 -57.4163 138° Southeast  Level Estimated
03:22PM -6.0424 -57.3313 138° Southeast  Level Estimated
03:23PM -6.1347 -57.2463 138° Southeast  Level Estimated
03:24PM -6.2270 -57.1613 138° Southeast  Level Estimated
03:25PM -6.3193 -57.0762 138° Southeast  Level Estimated
03:26PM -6.4116 -56.9911 137° Southeast  Level Estimated
03:27PM -6.5038 -56.9060 137° Southeast  Level Estimated
03:28PM -6.5961 -56.8208 137° Southeast  Level Estimated
03:29PM -6.6883 -56.7356 137° Southeast  Level Estimated
03:30PM -6.7805 -56.6504 137° Southeast  Level Estimated
03:31PM -6.8727 -56.5652 137° Southeast  Level Estimated
03:32PM -6.9649 -56.4799 137° Southeast  Level Estimated
03:33PM -7.0570 -56.3945 137° Southeast  Level Estimated
03:34PM -7.1492 -56.3092 137° Southeast  Level Estimated
03:35PM -7.2413 -56.2238 137° Southeast  Level Estimated
03:36PM -7.3334 -56.1384 137° Southeast  Level Estimated
03:37PM -7.4255 -56.0529 137° Southeast  Level Estimated
03:38PM -7.5176 -55.9674 137° Southeast  Level Estimated
03:39PM -7.6097 -55.8819 137° Southeast  Level Estimated
03:40PM -7.7017 -55.7963 137° Southeast  Level Estimated
03:41PM -7.7937 -55.7107 137° Southeast  Level Estimated
03:42PM -7.8857 -55.6250 137° Southeast  Level Estimated
03:43PM -7.9777 -55.5393 137° Southeast  Level Estimated
03:44PM -8.0697 -55.4536 137° Southeast  Level Estimated
03:45PM -8.1617 -55.3679 137° Southeast  Level Estimated
03:46PM -8.2536 -55.2821 137° Southeast  Level Estimated
03:47PM -8.3456 -55.1962 137° Southeast  Level Estimated
03:48PM -8.4375 -55.1103 137° Southeast  Level Estimated
03:49PM -8.5294 -55.0244 137° Southeast  Level Estimated
03:50PM -8.6212 -54.9385 137° Southeast  Level Estimated
03:51PM -8.7131 -54.8525 137° Southeast  Level Estimated
03:52PM -8.8049 -54.7664 137° Southeast  Level Estimated
03:53PM -8.8967 -54.6803 137° Southeast  Level Estimated
03:54PM -8.9885 -54.5942 137° Southeast  Level Estimated
03:55PM -9.0803 -54.5080 137° Southeast  Level Estimated
03:56PM -9.1720 -54.4218 137° Southeast  Level Estimated
03:57PM -9.2638 -54.3355 137° Southeast  Level Estimated
03:58PM -9.3555 -54.2492 137° Southeast  Level Estimated
03:59PM -9.4472 -54.1628 137° Southeast  Level Estimated
04:00PM -9.5388 -54.0764 137° Southeast  Level Estimated
04:01PM -9.6305 -53.9900 137° Southeast  Level Estimated
04:02PM -9.7221 -53.9035 137° Southeast  Level Estimated
04:03PM -9.8137 -53.8170 137° Southeast  Level Estimated
04:04PM -9.9053 -53.7304 137° Southeast  Level Estimated
04:05PM -9.9969 -53.6437 137° Southeast  Level Estimated
04:06PM -10.0884 -53.5570 137° Southeast  Level Estimated
04:07PM -10.1799 -53.4703 137° Southeast  Level Estimated
04:08PM -10.2714 -53.3835 137° Southeast  Level Estimated
04:09PM -10.3629 -53.2967 137° Southeast  Level Estimated
04:10PM -10.4543 -53.2098 137° Southeast  Level Estimated
04:11PM -10.5457 -53.1228 137° Southeast  Level Estimated
04:12PM -10.6371 -53.0358 137° Southeast  Level Estimated
04:13PM -10.7285 -52.9488 137° Southeast  Level Estimated
04:14PM -10.8198 -52.8617 137° Southeast  Level Estimated
04:15PM -10.9112 -52.7746 137° Southeast  Level Estimated
04:16PM -11.0025 -52.6874 137° Southeast  Level Estimated
04:17PM -11.0937 -52.6001 137° Southeast  Level Estimated
04:18PM -11.1850 -52.5128 137° Southeast  Level Estimated
04:19PM -11.2762 -52.4254 137° Southeast  Level Estimated
04:20PM -11.3674 -52.3380 137° Southeast  Level Estimated
04:21PM -11.4586 -52.2505 137° Southeast  Level Estimated
04:22PM -11.5497 -52.1630 137° Southeast  Level Estimated
04:23PM -11.6409 -52.0754 137° Southeast  Level Estimated
04:24PM -11.7319 -51.9877 137° Southeast  Level Estimated
04:25PM -11.8230 -51.9000 137° Southeast  Level Estimated
04:26PM -11.9141 -51.8122 137° Southeast  Level Estimated
04:27PM -12.0051 -51.7244 137° Southeast  Level Estimated
04:28PM -12.0961 -51.6366 137° Southeast  Level Estimated
04:29PM -12.1870 -51.5486 137° Southeast  Level Estimated
04:30PM -12.2779 -51.4606 137° Southeast  Level Estimated
04:31PM -12.3688 -51.3725 137° Southeast  Level Estimated
04:32PM -12.4597 -51.2844 137° Southeast  Level Estimated
04:33PM -12.5506 -51.1962 137° Southeast  Level Estimated
04:34PM -12.6414 -51.1080 137° Southeast  Level Estimated
04:35PM -12.7322 -51.0197 137° Southeast  Level Estimated
04:36PM -12.8229 -50.9313 136° Southeast  Level Estimated
04:37PM -12.9137 -50.8428 136° Southeast  Level Estimated
04:38PM -13.0044 -50.7543 136° Southeast  Level Estimated
04:39PM -13.0950 -50.6658 136° Southeast  Level Estimated
04:40PM -13.1857 -50.5771 136° Southeast  Level Estimated
04:41PM -13.2763 -50.4884 136° Southeast  Level Estimated
04:42PM -13.3669 -50.3997 136° Southeast  Level Estimated
04:43PM -13.4574 -50.3108 136° Southeast  Level Estimated
04:44PM -13.5479 -50.2219 136° Southeast  Level Estimated
04:45PM -13.6384 -50.1330 136° Southeast  Level Estimated
04:46PM -13.7289 -50.0439 136° Southeast  Level Estimated
04:47PM -13.8193 -49.9548 136° Southeast  Level Estimated
04:48PM -13.9097 -49.8657 136° Southeast  Level Estimated
04:49PM -14.0000 -49.7764 136° Southeast  Level Estimated
04:50PM -14.0904 -49.6871 136° Southeast  Level Estimated
04:51PM -14.1806 -49.5977 136° Southeast  Level Estimated
04:52PM -14.2709 -49.5083 136° Southeast  Level Estimated
04:53PM -14.3611 -49.4187 136° Southeast  Level Estimated
04:54PM -14.4513 -49.3291 136° Southeast  Level Estimated
04:55PM -14.5415 -49.2394 136° Southeast  Level Estimated
04:55PM -14.7360 -49.3650 136° Southeast 436 502 33,600  Level FlightAware
04:56PM -14.6316 -49.1497 136° Southeast  Level Estimated
04:56PM -14.7590 -49.3440 139° Southeast 431 496 33,300  Level FlightAware
04:57PM -14.8850 -49.2350 140° Southeast 416 479 30,700 -2,640 Descending FlightAware
04:57PM -14.9680 -49.1610 139° Southeast 400 460 29,000 -1,800 Descending FlightAware
04:58PM -15.0150 -49.1210 141° Southeast 393 452 28,100 -1,680 Descending FlightAware
04:59PM -15.0760 -49.0670 139° Southeast 384 442 26,800 -1,680 Descending FlightAware
05:00PM -15.1330 -49.0170 140° Southeast 376 433 25,600 -1,680 Descending FlightAware
05:01PM -15.2220 -48.9340 138° Southeast 368 423 23,700 -2,220 Descending FlightAware
05:01PM -15.2700 -48.8680 127° Southeast 388 447 21,500 -2,400 Descending FlightAware
05:02PM -15.3100 -48.8100 126° Southeast 383 441 20,300 -2,520 Descending FlightAware
05:03PM -15.3600 -48.7390 126° Southeast 398 458 18,000 -3,180 Descending FlightAware
05:03PM -15.4040 -48.6780 127° Southeast 410 472 15,800 -2,700 Descending FlightAware
05:04PM -15.4470 -48.6160 126° Southeast 383 441 14,400 -1,680 Descending FlightAware
05:05PM -15.4870 -48.5600 127° Southeast 327 376 13,400 -1,560 Descending FlightAware
05:06PM -15.5250 -48.5080 127° Southeast 299 344 12,200 -1,260 Descending FlightAware
05:07PM -15.5710 -48.4420 126° Southeast 279 321 11,400 -900 Descending FlightAware
05:07PM -15.5980 -48.4030 126° Southeast 275 316 10,800 -1,020 Descending FlightAware
05:08PM -15.6320 -48.3560 127° Southeast 262 302 10,100 -720 Descending FlightAware
05:08PM -15.6480 -48.3330 126° Southeast 259 298 10,000 -180 Descending FlightAware
05:09PM -15.6620 -48.3130 126° Southeast 248 285 10,000 -540 Level FlightAware
05:09PM -15.6770 -48.2890 123° Southeast 242 278 9,600 -840 Descending FlightAware
05:09PM -15.6790 -48.2750 98° East 233 268 9,500 -660 Descending FlightAware
05:10PM -15.6760 -48.2280 86° East 225 259 9,000 -720 Descending FlightAware
05:10PM -15.6740 -48.2030 85° East 223 257 8,700 -360 Descending FlightAware
05:11PM -15.6730 -48.1930 84° East 220 253 8,600 -960 Descending FlightAware
05:12PM -15.7270 -48.1680 156° South 221 254 7,500 -1,500 Descending FlightAware
05:12PM -15.7570 -48.1720 187° South 223 257 7,200 -540 Descending FlightAware
05:13PM -15.7840 -48.1830 201° Southwest 225 259 7,000 -360 Descending FlightAware
05:13PM -15.8060 -48.2000 217° Southwest 225 259 6,900 -300 Descending FlightAware
05:13PM -15.8230 -48.2120 214° Southwest 223 257 6,800 -300 Descending FlightAware
05:14PM -15.8410 -48.2250 215° Southwest 221 254 6,700 -300 Descending FlightAware
05:14PM -15.8580 -48.2320 202° Southwest 219 252 6,600 -300 Descending FlightAware
05:15PM -15.8810 -48.2180 150° Southeast 223 257 6,500 -240 Descending FlightAware
05:15PM -15.8810 -48.1900 90° East 205 236 6,400 -360 Descending FlightAware
05:15PM -15.8790 -48.1620 86° East 204 235 6,200 -360 Descending FlightAware
05:16PM -15.8770 -48.1350 86° East 204 235 6,100 -240 Descending FlightAware
05:16PM -15.8750 -48.1120 85° East 199 229 6,000 -360 Descending FlightAware
05:17PM -15.8740 -48.0860 88° East 188 216 5,800 -300 Descending FlightAware
05:17PM -15.8730 -48.0690 87° East 176 203 5,800 -420 Level FlightAware
05:18PM -15.8710 -48.0490 84° East 157 181 5,500 -780 Descending FlightAware
05:18PM -15.8710 -48.0390 90° East 152 175 5,300 -840 Descending FlightAware
05:18PM -15.8690 -48.0180 84° East 141 162 4,900 -780 Descending FlightAware
05:19PM -15.8680 -48.0000 87° East 141 162 4,600 -780 Descending FlightAware
05:19PM -15.8680 -47.9910 90° East 140 161 4,400 -720 Descending FlightAware
05:19PM -15.8670 -47.9770 86° East 141 162 4,200 -540 Descending FlightAware
05:20PM -15.8660 -47.9620 86° East 141 162 4,000 -720 Descending FlightAware
05:20PM -15.8650 -47.9420 87° East 139 160 3,600 -780 Descending FlightAware
05:21PM -15.8630 -47.9240 83° East 140 161 3,300 -240 Descending FlightAware
05:21PM -15.8630 -47.9130 90° East 68 78  Descending FlightAware
05:22PM -15.8610 -47.8950 83° East 141 162 3,300 5,040 Climbing FlightAware
05:22PM -15.8640 -47.9080 257° West 26 30 -7,080 Descending FlightAware
05:23PM -15.8640 -47.9100 270° West 31 36  Level FlightAware
05:23PM -15.8640 -47.9110 270° West 31 36  Level FlightAware
05:23PM -15.8650 -47.9120 224° Southwest 17 20  Level FlightAware
05:24PM -15.8650 -47.9130 270° West 17 20  Level FlightAware
05:24PM -15.8650 -47.9160 270° West 18 21  Level FlightAware
05:25PM -15.8650 -47.9180 270° West 24 28  Level FlightAware
05:25PM -15.8650 -47.9190 270° West 26 30  Level FlightAware
05:26PM -15.8650 -47.9210 270° West 27 31  Level FlightAware
05:27PM -15.8650 -47.9230 270° West 20 23  Level FlightAware
05:27PM -15.8650 -47.9240 270° West 23 26  Level FlightAware
05:27PM -15.8660 -47.9240 180° South 22 25  Level FlightAware
05:28PM -15.8670 -47.9250 224° Southwest 15 17  Level FlightAware
05:29PM -15.8680 -47.9250 180° South 19 22  Level FlightAware
05:29PM -15.8680 -47.9260 270° West 16 18  Level FlightAware
05:30PM -15.8690 -47.9260 180° South 11 13  Level FlightAware
05:32PM -15.8626 -47.9127 63° Northeast  Level Estimated